Time;durP1;ratioP1;P1;durP2;ratioP2;P2;SDS_P1;SDS_P2;PMS_P1;PMS_P2;Temp;Humidity;BMP_temperature;BMP_pressure;BME280_temperature;BME280_humidity;BME280_pressure;Samples;Min_cycle;Max_cycle;Signal;HPM_P1;HPM_P2
2023/10/04 00:02:12;;;;;;;27.07;23.57;;;19.90;86.40;;;;;;4978364;28;20299;-78
2023/10/04 00:04:43;;;;;;;31.67;24.10;;;19.90;86.40;;;;;;4983559;28;20653;-78
2023/10/04 00:07:11;;;;;;;33.17;25.50;;;19.90;86.50;;;;;;4987549;28;20199;-78
2023/10/04 00:09:38;;;;;;;34.27;22.80;;;19.80;86.40;;;;;;4999399;28;20211;-78
2023/10/04 00:12:05;;;;;;;31.50;24.87;;;19.80;86.30;;;;;;4993340;28;21649;-79
2023/10/04 00:14:33;;;;;;;27.40;23.17;;;19.80;86.30;;;;;;4998515;28;20220;-78
2023/10/04 00:17:00;;;;;;;27.90;24.80;;;19.80;86.20;;;;;;4979455;28;20310;-78
2023/10/04 00:19:28;;;;;;;32.13;23.20;;;19.80;86.10;;;;;;4983419;28;20230;-79
2023/10/04 00:21:55;;;;;;;28.90;23.47;;;19.70;85.90;;;;;;4977857;28;20478;-79
2023/10/04 00:24:22;;;;;;;29.40;22.23;;;19.80;86.00;;;;;;5004463;28;20200;-79
2023/10/04 00:26:49;;;;;;;26.30;22.80;;;19.70;86.00;;;;;;4993449;28;20346;-78
2023/10/04 00:29:18;;;;;;;26.17;23.23;;;19.70;85.90;;;;;;5000906;28;20220;-78
2023/10/04 00:31:47;;;;;;;33.77;22.80;;;19.60;85.90;;;;;;4997248;28;20206;-79
2023/10/04 00:34:14;;;;;;;28.70;23.07;;;19.60;85.90;;;;;;4992977;28;20226;-79
2023/10/04 00:36:44;;;;;;;25.43;22.30;;;19.60;85.90;;;;;;4975233;28;20223;-78
2023/10/04 00:39:13;;;;;;;25.43;22.40;;;19.60;85.90;;;;;;4968936;28;20686;-78
2023/10/04 00:41:41;;;;;;;29.00;23.43;;;19.60;85.90;;;;;;4974843;28;20250;-78
2023/10/04 00:44:09;;;;;;;31.00;24.30;;;19.50;85.80;;;;;;4994907;28;20203;-79
2023/10/04 00:46:40;;;;;;;31.63;23.53;;;19.50;85.80;;;;;;4991271;28;20223;-78
2023/10/04 00:49:08;;;;;;;28.00;23.80;;;19.40;85.60;;;;;;4996963;28;20226;-78
2023/10/04 00:51:37;;;;;;;26.50;22.07;;;19.50;85.60;;;;;;4977013;28;20211;-78
2023/10/04 00:54:09;;;;;;;24.83;22.13;;;19.40;85.60;;;;;;4998140;28;20298;-78
2023/10/04 00:56:38;;;;;;;29.37;23.17;;;19.40;85.70;;;;;;4999944;28;20202;-78
2023/10/04 00:59:05;;;;;;;32.17;23.23;;;19.40;85.70;;;;;;5004243;28;20207;-79
2023/10/04 01:01:32;;;;;;;29.70;22.93;;;19.40;85.60;;;;;;4981495;28;20294;-78
2023/10/04 01:04:00;;;;;;;25.73;22.87;;;19.50;85.50;;;;;;4998335;28;20223;-78
2023/10/04 01:06:30;;;;;;;31.20;23.73;;;19.40;85.20;;;;;;4990100;28;20259;-78
2023/10/04 01:08:57;;;;;;;27.33;23.83;;;19.50;85.10;;;;;;4979485;28;20594;-78
2023/10/04 01:11:24;;;;;;;25.67;22.30;;;19.50;84.90;;;;;;4972053;28;20302;-78
2023/10/04 01:14:06;;;;;;;27.27;23.67;;;19.50;84.80;;;;;;4955382;28;20240;-78
2023/10/04 01:16:35;;;;;;;24.83;22.27;;;19.60;84.70;;;;;;4958586;28;20636;-78
2023/10/04 01:19:03;;;;;;;26.57;23.63;;;19.60;84.60;;;;;;4959484;28;20224;-78
2023/10/04 01:21:32;;;;;;;27.10;23.93;;;19.60;84.50;;;;;;4979628;28;20207;-78
2023/10/04 01:24:03;;;;;;;26.33;23.43;;;19.60;84.40;;;;;;4975143;28;20737;-78
2023/10/04 01:26:30;;;;;;;27.70;22.73;;;19.60;84.90;;;;;;4954815;29;20201;-80
2023/10/04 01:29:02;;;;;;;28.87;23.70;;;19.50;84.30;;;;;;4950620;28;20211;-79
2023/10/04 01:31:33;;;;;;;27.63;22.10;;;19.60;84.40;;;;;;4975618;28;20547;-79
2023/10/04 01:34:00;;;;;;;30.80;24.20;;;19.50;84.40;;;;;;4965132;28;20267;-78
2023/10/04 01:36:27;;;;;;;28.00;24.00;;;19.50;84.50;;;;;;4960952;28;20226;-79
2023/10/04 01:38:54;;;;;;;32.87;24.20;;;19.50;84.50;;;;;;4971734;28;20291;-78
2023/10/04 01:41:22;;;;;;;28.33;24.13;;;19.50;84.40;;;;;;4955265;28;20247;-78
2023/10/04 01:43:50;;;;;;;29.17;24.10;;;19.40;84.40;;;;;;4952243;29;20226;-78
2023/10/04 01:46:17;;;;;;;27.63;22.80;;;19.40;84.60;;;;;;4970560;28;20699;-78
2023/10/04 01:48:44;;;;;;;28.87;23.93;;;19.40;84.70;;;;;;4939445;29;20221;-78
2023/10/04 01:51:12;;;;;;;25.33;22.67;;;19.40;84.70;;;;;;4978328;28;20205;-79
2023/10/04 01:53:42;;;;;;;28.70;25.60;;;19.30;84.70;;;;;;4968974;28;20217;-78
2023/10/04 01:56:09;;;;;;;28.43;24.07;;;19.30;84.80;;;;;;4956300;29;20699;-79
2023/10/04 01:58:37;;;;;;;28.03;23.00;;;19.30;84.80;;;;;;4954996;28;20299;-78
2023/10/04 02:01:08;;;;;;;29.40;23.20;;;19.20;84.60;;;;;;4955605;28;20692;-79
2023/10/04 02:03:36;;;;;;;26.27;22.50;;;19.20;84.60;;;;;;4973257;28;20205;-78
2023/10/04 02:06:06;;;;;;;25.50;21.30;;;19.20;84.60;;;;;;4958599;28;20208;-79
2023/10/04 02:08:33;;;;;;;26.17;22.47;;;19.10;84.80;;;;;;4965797;28;20308;-79
2023/10/04 02:11:03;;;;;;;24.43;21.83;;;19.10;85.00;;;;;;4975458;28;20209;-78
2023/10/04 02:13:32;;;;;;;26.40;22.10;;;19.10;85.00;;;;;;4974196;28;20329;-78
2023/10/04 02:16:02;;;;;;;36.57;24.20;;;19.00;84.90;;;;;;4999760;28;20219;-78
2023/10/04 02:19:22;;;;;;;27.17;22.33;;;19.00;84.70;;;;;;4988795;28;20562;-78
2023/10/04 02:23:29;;;;;;;25.30;21.00;;;19.00;84.90;;;;;;4970997;28;20208;-78
2023/10/04 02:27:36;;;;;;;25.43;21.73;;;18.90;85.20;;;;;;4981732;28;20254;-78
2023/10/04 02:31:44;;;;;;;26.67;22.70;;;18.80;85.40;;;;;;4972967;28;20231;-79
2023/10/04 02:35:50;;;;;;;27.83;20.90;;;18.80;85.50;;;;;;4971518;28;20241;-78
2023/10/04 02:39:59;;;;;;;28.73;22.27;;;18.80;85.30;;;;;;4979208;28;20299;-78
2023/10/04 02:44:08;;;;;;;25.73;21.20;;;18.70;85.50;;;;;;4976071;28;20624;-78
2023/10/04 02:48:14;;;;;;;25.60;21.33;;;18.70;85.80;;;;;;4984618;28;20186;-80
2023/10/04 02:52:21;;;;;;;27.10;21.03;;;18.60;85.50;;;;;;4983927;28;20263;-78
2023/10/04 02:56:27;;;;;;;25.77;20.17;;;18.60;85.70;;;;;;4974379;28;20262;-78
2023/10/04 03:00:33;;;;;;;26.73;20.77;;;18.50;85.50;;;;;;4983141;28;20208;-80
2023/10/04 03:04:43;;;;;;;23.27;20.77;;;18.50;85.30;;;;;;4983069;28;20210;-79
2023/10/04 03:08:51;;;;;;;25.33;20.93;;;18.40;84.50;;;;;;4973310;28;20920;-78
2023/10/04 03:12:32;;;;;;;24.00;20.17;;;18.40;85.00;;;;;;4977890;28;20230;-78
2023/10/04 03:14:59;;;;;;;24.73;20.70;;;18.40;84.70;;;;;;4967662;28;20215;-78
2023/10/04 03:17:27;;;;;;;25.40;22.07;;;18.40;84.80;;;;;;4964011;28;20234;-78
2023/10/04 03:19:54;;;;;;;26.23;21.60;;;18.30;85.00;;;;;;4967372;28;20229;-78
2023/10/04 03:22:23;;;;;;;25.57;22.83;;;18.30;85.10;;;;;;4953368;28;20219;-78
2023/10/04 03:24:51;;;;;;;30.30;20.37;;;18.30;85.20;;;;;;4972331;28;20228;-78
2023/10/04 03:27:21;;;;;;;22.90;20.50;;;18.30;85.40;;;;;;4971000;28;20224;-78
2023/10/04 03:29:48;;;;;;;27.37;21.07;;;18.40;86.30;;;;;;4973457;28;20216;-78
2023/10/04 03:32:43;;;;;;;25.07;20.93;;;18.40;85.80;;;;;;4953415;28;20213;-76
2023/10/04 03:35:20;;;;;;;28.07;22.67;;;18.40;86.10;;;;;;4957933;28;20211;-79
2023/10/04 03:37:58;;;;;;;25.00;22.13;;;18.40;86.00;;;;;;4949403;29;20212;-78
2023/10/04 03:40:38;;;;;;;34.67;22.50;;;18.30;86.60;;;;;;4965409;28;20229;-78
2023/10/04 03:43:13;;;;;;;26.80;23.13;;;18.30;86.20;;;;;;4935411;29;20205;-78
2023/10/04 03:45:44;;;;;;;27.57;22.27;;;18.20;86.40;;;;;;4952447;29;20211;-78
2023/10/04 03:48:18;;;;;;;29.10;22.93;;;18.20;86.70;;;;;;4953804;29;20221;-79
2023/10/04 03:50:55;;;;;;;26.67;23.77;;;18.20;86.90;;;;;;4953633;28;20657;-78
2023/10/04 03:53:22;;;;;;;29.87;22.83;;;18.20;87.00;;;;;;4946195;28;20199;-78
2023/10/04 03:55:52;;;;;;;26.87;22.43;;;18.20;87.10;;;;;;4945647;29;20235;-79
2023/10/04 03:58:20;;;;;;;27.90;23.90;;;18.20;87.30;;;;;;4951138;28;20212;-78
2023/10/04 04:00:50;;;;;;;26.93;24.13;;;18.20;87.30;;;;;;4958473;28;20211;-78
2023/10/04 04:03:19;;;;;;;28.33;23.83;;;18.20;87.30;;;;;;4965284;28;20219;-78
2023/10/04 04:05:48;;;;;;;30.23;24.77;;;18.10;87.50;;;;;;4962678;28;20535;-78
2023/10/04 04:08:19;;;;;;;33.93;25.77;;;18.10;87.70;;;;;;4963962;28;20208;-78
2023/10/04 04:10:47;;;;;;;28.53;24.27;;;18.10;87.70;;;;;;4935425;29;20253;-79
2023/10/04 04:13:25;;;;;;;29.63;25.90;;;18.10;87.70;;;;;;4966507;28;20239;-79
2023/10/04 04:15:53;;;;;;;31.83;26.33;;;18.10;88.40;;;;;;4975719;28;20210;-77
2023/10/04 04:18:20;;;;;;;33.63;25.50;;;18.10;87.70;;;;;;4969620;28;20616;-78
2023/10/04 04:20:55;;;;;;;30.77;26.17;;;18.10;87.70;;;;;;4981918;28;20209;-79
2023/10/04 04:23:30;;;;;;;31.10;25.13;;;18.10;87.90;;;;;;4969829;28;20236;-78
2023/10/04 04:26:00;;;;;;;31.47;26.23;;;18.00;87.90;;;;;;4979541;28;20219;-78
2023/10/04 04:28:30;;;;;;;30.00;24.87;;;18.00;88.00;;;;;;5002340;28;20305;-79
2023/10/04 04:30:58;;;;;;;30.50;24.97;;;18.00;88.10;;;;;;4987264;28;20554;-78
2023/10/04 04:33:29;;;;;;;30.80;25.80;;;18.00;88.20;;;;;;4980257;28;20286;-79
2023/10/04 04:36:09;;;;;;;31.67;26.07;;;18.00;88.30;;;;;;4977334;28;20207;-79
2023/10/04 04:38:38;;;;;;;33.90;26.13;;;18.00;88.40;;;;;;4963451;28;20240;-79
2023/10/04 04:41:12;;;;;;;30.17;26.97;;;18.00;88.40;;;;;;4984730;28;20235;-78
2023/10/04 04:43:40;;;;;;;35.97;28.00;;;18.00;88.40;;;;;;5000548;28;20238;-79
2023/10/04 04:46:14;;;;;;;32.83;27.03;;;18.00;88.40;;;;;;4965202;28;20368;-78
2023/10/04 04:48:45;;;;;;;35.67;27.17;;;18.00;88.40;;;;;;4983646;28;20214;-78
2023/10/04 04:51:18;;;;;;;35.53;28.33;;;17.90;88.50;;;;;;4982358;28;20295;-78
2023/10/04 04:53:53;;;;;;;38.20;29.13;;;17.90;88.60;;;;;;4961018;28;20635;-78
2023/10/04 04:56:25;;;;;;;34.03;27.17;;;17.90;88.70;;;;;;4991873;28;20201;-79
2023/10/04 04:59:07;;;;;;;34.70;28.47;;;17.90;88.80;;;;;;4993476;28;20240;-79
2023/10/04 05:01:39;;;;;;;33.07;28.33;;;17.90;88.90;;;;;;4980363;28;20205;-78
2023/10/04 05:04:11;;;;;;;33.30;27.73;;;17.90;89.00;;;;;;4973945;28;20213;-78
2023/10/04 05:06:39;;;;;;;34.13;26.47;;;17.90;89.10;;;;;;4981662;28;20203;-79
2023/10/04 05:09:10;;;;;;;29.77;26.03;;;17.90;89.10;;;;;;4979049;28;20665;-78
2023/10/04 05:11:38;;;;;;;30.07;24.93;;;17.90;89.20;;;;;;5005059;28;20281;-78
2023/10/04 05:14:12;;;;;;;30.30;24.83;;;17.90;89.20;;;;;;4975656;28;20303;-77
2023/10/04 05:16:46;;;;;;;29.47;25.37;;;17.90;89.10;;;;;;4999885;28;20557;-78
2023/10/04 05:19:49;;;;;;;31.13;24.73;;;17.90;89.10;;;;;;4960128;28;20261;-78
2023/10/04 05:22:16;;;;;;;31.63;24.93;;;17.80;89.10;;;;;;4978198;28;20238;-78
2023/10/04 05:24:49;;;;;;;35.73;28.80;;;17.80;89.10;;;;;;4971374;28;20211;-79
2023/10/04 05:27:17;;;;;;;38.63;29.40;;;17.80;89.20;;;;;;4973298;28;20697;-78
2023/10/04 05:29:49;;;;;;;37.17;28.70;;;17.80;89.30;;;;;;4984055;28;20674;-78
2023/10/04 05:32:21;;;;;;;35.23;28.30;;;17.80;89.30;;;;;;4967710;28;20222;-78
2023/10/04 05:34:51;;;;;;;35.73;28.53;;;17.90;89.40;;;;;;4977652;28;20207;-79
2023/10/04 05:37:31;;;;;;;34.97;28.67;;;17.90;89.40;;;;;;4999744;28;20643;-77
2023/10/04 05:40:09;;;;;;;41.13;30.70;;;17.90;89.40;;;;;;4979622;28;20218;-77
2023/10/04 05:43:03;;;;;;;36.03;27.67;;;17.90;89.50;;;;;;4979062;28;20206;-76
2023/10/04 05:45:36;;;;;;;35.60;28.73;;;17.90;89.60;;;;;;4967387;28;20220;-77
2023/10/04 05:48:19;;;;;;;38.47;29.70;;;17.90;89.60;;;;;;4994434;28;20298;-78
2023/10/04 05:51:17;;;;;;;38.17;28.53;;;17.90;89.70;;;;;;4967283;28;20228;-78
2023/10/04 05:53:53;;;;;;;33.00;27.40;;;17.90;89.70;;;;;;4977678;28;20217;-78
2023/10/04 05:56:39;;;;;;;37.87;29.00;;;18.00;89.80;;;;;;4982435;28;20667;-77
2023/10/04 05:59:10;;;;;;;34.97;29.80;;;18.00;89.70;;;;;;4974502;28;20223;-77
2023/10/04 06:01:51;;;;;;;39.83;27.90;;;18.00;89.40;;;;;;4969135;28;20269;-78
2023/10/04 06:04:35;;;;;;;35.27;30.43;;;18.10;89.50;;;;;;4987924;28;20216;-77
2023/10/04 06:07:03;;;;;;;38.13;30.80;;;18.10;89.60;;;;;;4975682;28;20225;-78
2023/10/04 06:09:32;;;;;;;41.83;31.93;;;18.20;89.70;;;;;;4978994;28;20548;-78
2023/10/04 06:12:20;;;;;;;37.10;29.57;;;18.30;89.90;;;;;;4961615;28;20257;-78
2023/10/04 06:14:48;;;;;;;38.83;31.47;;;18.30;89.90;;;;;;4982951;28;20280;-78
2023/10/04 06:17:23;;;;;;;36.93;30.30;;;18.40;89.80;;;;;;4986554;28;20209;-78
2023/10/04 06:19:54;;;;;;;35.20;29.40;;;18.50;90.20;;;;;;4989914;28;20209;-78
2023/10/04 06:22:22;;;;;;;35.73;29.43;;;18.50;89.70;;;;;;5001750;28;20259;-78
2023/10/04 06:24:50;;;;;;;36.07;27.63;;;18.50;89.70;;;;;;4980346;28;20298;-78
2023/10/04 06:27:21;;;;;;;35.87;28.97;;;18.60;89.60;;;;;;4992008;28;20210;-78
2023/10/04 06:29:50;;;;;;;38.83;29.93;;;18.60;89.50;;;;;;4979358;28;20218;-78
2023/10/04 06:32:20;;;;;;;35.50;28.03;;;18.70;89.40;;;;;;4965732;28;20541;-78
2023/10/04 06:34:57;;;;;;;40.93;30.80;;;18.70;89.40;;;;;;4993910;28;20303;-78
2023/10/04 06:37:27;;;;;;;36.43;29.23;;;18.70;89.50;;;;;;4999655;28;20200;-78
2023/10/04 06:40:01;;;;;;;41.57;31.20;;;18.70;89.40;;;;;;4966175;28;20218;-78
2023/10/04 06:42:32;;;;;;;39.00;30.37;;;18.70;89.40;;;;;;4998857;28;20230;-78
2023/10/04 06:45:01;;;;;;;37.40;30.97;;;18.80;89.30;;;;;;4988307;28;20213;-78
2023/10/04 06:47:29;;;;;;;37.43;31.30;;;18.80;89.20;;;;;;4985640;28;20204;-78
2023/10/04 06:49:58;;;;;;;43.73;30.67;;;18.90;89.10;;;;;;4997959;28;20223;-77
2023/10/04 06:52:31;;;;;;;37.67;31.20;;;19.00;89.10;;;;;;5000817;28;20583;-76
2023/10/04 06:55:04;;;;;;;41.37;29.57;;;19.10;88.50;;;;;;5000777;28;20219;-78
2023/10/04 06:57:51;;;;;;;38.67;29.20;;;19.30;88.00;;;;;;4973684;28;20223;-77
2023/10/04 07:00:21;;;;;;;38.13;30.10;;;19.30;87.30;;;;;;4976632;28;20314;-79
2023/10/04 07:02:59;;;;;;;40.63;32.07;;;19.50;87.00;;;;;;5006440;28;20231;-78
2023/10/04 07:05:40;;;;;;;40.63;32.13;;;19.50;86.70;;;;;;4983001;28;20213;-79
2023/10/04 07:08:16;;;;;;;46.10;33.43;;;19.70;86.50;;;;;;4997192;28;20214;-78
2023/10/04 07:10:47;;;;;;;45.47;32.17;;;19.80;86.50;;;;;;4981631;28;20212;-78
2023/10/04 07:13:40;;;;;;;42.47;33.07;;;19.90;86.70;;;;;;4987058;28;20580;-78
2023/10/04 07:16:11;;;;;;;44.10;33.57;;;20.00;86.70;;;;;;4971586;28;20596;-79
2023/10/04 07:19:03;;;;;;;49.80;32.33;;;20.20;86.80;;;;;;4965937;28;20225;-78
2023/10/04 07:21:43;;;;;;;36.93;30.00;;;20.50;86.80;;;;;;4983377;28;20205;-77
2023/10/04 07:24:15;;;;;;;35.40;28.43;;;20.70;87.00;;;;;;4988066;28;20208;-77
2023/10/04 07:26:46;;;;;;;34.43;27.90;;;20.80;87.30;;;;;;4995388;28;20291;-78
2023/10/04 07:29:36;;;;;;;35.97;27.50;;;21.00;87.70;;;;;;4977832;28;20208;-78
2023/10/04 07:32:14;;;;;;;32.80;27.30;;;21.20;88.10;;;;;;4981166;28;20706;-77
2023/10/04 07:34:56;;;;;;;35.80;28.13;;;21.40;88.20;;;;;;4984879;28;20223;-79
2023/10/04 07:37:32;;;;;;;30.33;25.07;;;21.50;88.60;;;;;;4974271;28;20216;-77
2023/10/04 07:40:15;;;;;;;30.63;26.67;;;21.60;88.90;;;;;;4978679;28;20311;-78
2023/10/04 07:42:47;;;;;;;39.50;27.70;;;21.80;89.30;;;;;;4985916;28;20209;-78
2023/10/04 07:45:32;;;;;;;34.83;28.10;;;21.90;89.90;;;;;;4971957;28;20216;-79
2023/10/04 07:48:18;;;;;;;38.13;27.70;;;21.90;89.90;;;;;;4970528;28;20228;-78
2023/10/04 07:51:05;;;;;;;40.07;26.73;;;22.00;89.80;;;;;;4985160;28;20221;-77
2023/10/04 07:53:39;;;;;;;35.03;27.57;;;22.00;90.10;;;;;;4970976;28;20215;-78
2023/10/04 07:56:10;;;;;;;37.33;26.07;;;22.10;90.30;;;;;;4987187;28;20314;-79
2023/10/04 07:58:46;;;;;;;37.23;25.17;;;22.00;90.40;;;;;;4987167;28;20253;-79
2023/10/04 08:01:20;;;;;;;42.13;27.17;;;22.00;90.50;;;;;;4991235;28;20697;-78
2023/10/04 08:03:52;;;;;;;43.33;24.70;;;22.00;90.80;;;;;;4978104;28;20214;-78
2023/10/04 08:06:39;;;;;;;49.63;27.83;;;22.00;91.00;;;;;;4972160;28;20205;-78
2023/10/04 08:09:07;;;;;;;40.87;25.50;;;22.10;91.20;;;;;;4987355;28;20305;-78
2023/10/04 08:11:39;;;;;;;43.23;25.13;;;22.10;91.40;;;;;;4994409;28;20205;-79
2023/10/04 08:14:11;;;;;;;43.10;25.07;;;22.10;91.50;;;;;;4985389;28;20252;-78
2023/10/04 08:16:42;;;;;;;40.87;24.80;;;22.00;91.50;;;;;;4982671;28;20202;-78
2023/10/04 08:19:39;;;;;;;45.93;28.20;;;22.00;91.70;;;;;;4975058;28;20264;-79
2023/10/04 08:22:09;;;;;;;42.80;26.07;;;22.00;91.90;;;;;;4977555;28;20217;-79
2023/10/04 08:24:46;;;;;;;42.90;26.60;;;22.10;92.00;;;;;;4980527;28;20648;-78
2023/10/04 08:27:24;;;;;;;48.50;26.57;;;22.10;92.10;;;;;;4986587;28;20196;-79
2023/10/04 08:29:58;;;;;;;44.87;26.53;;;22.20;92.20;;;;;;4971792;28;20219;-78
2023/10/04 08:32:37;;;;;;;42.10;27.37;;;22.20;92.40;;;;;;4984707;28;20636;-77
2023/10/04 08:35:25;;;;;;;57.33;34.13;;;22.20;92.40;;;;;;4980663;28;20280;-78
2023/10/04 08:38:04;;;;;;;53.03;35.13;;;22.20;92.40;;;;;;4981690;28;20219;-78
2023/10/04 08:40:48;;;;;;;54.03;35.80;;;22.20;92.30;;;;;;4971523;28;20618;-79
2023/10/04 08:43:37;;;;;;;72.97;44.37;;;22.20;92.20;;;;;;4972779;28;20219;-78
2023/10/04 08:46:08;;;;;;;68.57;42.40;;;22.20;92.30;;;;;;4994059;28;20215;-78
2023/10/04 08:48:39;;;;;;;69.63;45.23;;;22.10;92.40;;;;;;4992964;28;20236;-77
2023/10/04 08:51:21;;;;;;;65.63;42.43;;;22.20;92.50;;;;;;5001358;28;20209;-78
2023/10/04 08:54:24;;;;;;;76.57;47.33;;;22.20;92.50;;;;;;4985410;28;20212;-78
2023/10/04 08:57:14;;;;;;;115.17;62.63;;;22.30;92.50;;;;;;4972120;28;20288;-78
2023/10/04 08:59:51;;;;;;;102.33;60.93;;;22.30;92.60;;;;;;4964297;28;20204;-77
2023/10/04 09:02:29;;;;;;;112.70;60.10;;;22.30;92.70;;;;;;4961577;28;20216;-78
2023/10/04 09:05:06;;;;;;;102.13;57.50;;;22.40;92.70;;;;;;4992751;28;20220;-78
2023/10/04 09:07:56;;;;;;;105.70;60.70;;;22.40;92.70;;;;;;4977240;28;20205;-78
2023/10/04 09:10:36;;;;;;;109.03;58.13;;;22.50;92.70;;;;;;4979306;28;20207;-79
2023/10/04 09:13:11;;;;;;;100.23;58.07;;;22.80;92.70;;;;;;4999109;28;20251;-78
2023/10/04 09:15:40;;;;;;;93.67;58.10;;;22.90;92.60;;;;;;4995471;28;20231;-78
2023/10/04 09:18:29;;;;;;;100.40;56.47;;;23.10;92.40;;;;;;4980326;28;20216;-79
2023/10/04 09:21:27;;;;;;;95.83;57.13;;;23.20;92.20;;;;;;4959324;28;20558;-79
2023/10/04 09:24:28;;;;;;;103.87;56.50;;;23.40;92.20;;;;;;4960553;28;20239;-79
2023/10/04 09:26:56;;;;;;;93.03;57.57;;;23.50;92.00;;;;;;4968996;28;20203;-78
2023/10/04 09:29:36;;;;;;;96.50;56.53;;;23.60;91.80;;;;;;4972647;28;20209;-77
2023/10/04 09:32:09;;;;;;;81.30;53.03;;;23.70;91.80;;;;;;4988410;28;20205;-77
2023/10/04 09:34:45;;;;;;;79.50;50.50;;;23.70;91.80;;;;;;4979165;28;20263;-77
2023/10/04 09:37:23;;;;;;;84.67;53.47;;;23.80;91.80;;;;;;4983015;28;20223;-77
2023/10/04 09:40:15;;;;;;;88.00;53.10;;;23.80;91.90;;;;;;4985809;28;20260;-78
2023/10/04 09:42:56;;;;;;;75.67;53.23;;;23.90;92.00;;;;;;4995389;28;20308;-78
2023/10/04 09:45:36;;;;;;;74.43;51.07;;;23.90;91.90;;;;;;4975025;28;20698;-77
2023/10/04 09:48:17;;;;;;;76.97;51.77;;;23.90;91.70;;;;;;4994528;28;20640;-78
2023/10/04 09:51:31;;;;;;;70.83;48.13;;;24.00;91.80;;;;;;4957498;28;20241;-78
2023/10/04 09:54:08;;;;;;;70.90;49.23;;;24.10;91.70;;;;;;4970800;28;20200;-78
2023/10/04 09:56:52;;;;;;;75.23;52.70;;;24.10;91.60;;;;;;4964189;28;20209;-77
2023/10/04 09:59:27;;;;;;;72.43;53.23;;;24.10;91.50;;;;;;4985455;28;20205;-79
2023/10/04 10:01:59;;;;;;;74.17;50.37;;;24.20;91.40;;;;;;4999135;28;20223;-78
2023/10/04 10:05:00;;;;;;;71.50;51.37;;;24.20;91.40;;;;;;4984501;28;20224;-78
2023/10/04 10:07:39;;;;;;;70.17;48.20;;;24.30;91.30;;;;;;4982101;28;20195;-79
2023/10/04 10:10:16;;;;;;;72.30;49.33;;;24.40;91.20;;;;;;4976444;28;20224;-79
2023/10/04 10:12:51;;;;;;;70.43;53.07;;;24.40;91.10;;;;;;4987657;28;20209;-78
2023/10/04 10:30:19;;;;;;;63.37;43.27;;;25.80;89.70;;;;;;5003662;28;20304;-80
2023/10/04 10:33:05;;;;;;;57.63;40.07;;;26.10;88.60;;;;;;4999294;28;20203;-78
2023/10/04 10:35:50;;;;;;;51.20;41.57;;;26.30;87.80;;;;;;5004480;28;20222;-78
2023/10/04 10:38:41;;;;;;;49.50;38.00;;;26.40;86.50;;;;;;5004027;28;20558;-79
2023/10/04 10:41:29;;;;;;;43.63;34.40;;;26.50;86.10;;;;;;5003070;28;20213;-79
2023/10/04 10:44:12;;;;;;;49.67;37.03;;;26.60;85.70;;;;;;5011709;28;20196;-80
2023/10/04 10:46:56;;;;;;;44.50;33.40;;;26.60;84.30;;;;;;4965047;28;20221;-79
2023/10/04 10:50:12;;;;;;;42.47;34.40;;;26.50;84.20;;;;;;4999627;28;20212;-79
2023/10/04 10:52:46;;;;;;;35.70;29.67;;;26.40;84.40;;;;;;4994642;28;20697;-79
2023/10/04 10:55:18;;;;;;;38.00;30.73;;;26.40;84.40;;;;;;4993853;28;20276;-79
2023/10/04 11:00:35;;;;;;;32.70;27.83;;;26.60;83.90;;;;;;3308342;26;20240;-62
2023/10/04 11:03:10;;;;;;;36.77;28.93;;;26.70;83.00;;;;;;4993116;28;20646;-63
2023/10/04 11:05:38;;;;;;;32.80;29.27;;;26.90;82.20;;;;;;4994954;28;20214;-63
2023/10/04 11:08:12;;;;;;;34.57;28.13;;;27.00;81.60;;;;;;4994843;28;20214;-62
2023/10/04 11:10:40;;;;;;;30.67;26.37;;;27.10;81.00;;;;;;4996241;28;20587;-63
2023/10/04 11:13:10;;;;;;;28.53;23.93;;;27.20;80.40;;;;;;4994588;28;20263;-62
2023/10/04 11:15:38;;;;;;;27.60;21.73;;;27.20;80.30;;;;;;4993778;28;20643;-63
2023/10/04 11:18:06;;;;;;;28.20;24.17;;;27.30;80.10;;;;;;4995134;28;20299;-65
2023/10/04 11:20:37;;;;;;;26.20;23.33;;;27.40;79.70;;;;;;4996238;28;20227;-63
2023/10/04 11:23:06;;;;;;;25.90;22.23;;;27.60;79.40;;;;;;4993773;28;20197;-63
2023/10/04 11:26:24;;;;;;;25.80;21.53;;;27.80;78.90;;;;;;4975130;28;20296;-63
2023/10/04 11:29:16;;;;;;;21.97;19.63;;;27.90;77.40;;;;;;4995625;28;20192;-62
2023/10/04 11:31:43;;;;;;;22.47;20.17;;;28.00;76.80;;;;;;4992482;28;20220;-63
2023/10/04 11:34:12;;;;;;;24.67;20.53;;;28.00;76.00;;;;;;4995569;28;20287;-63
2023/10/04 11:36:40;;;;;;;21.20;19.00;;;28.00;75.80;;;;;;4994631;28;20648;-62
2023/10/04 11:39:13;;;;;;;26.50;20.13;;;28.00;76.10;;;;;;4994273;28;20234;-62
2023/10/04 11:41:40;;;;;;;22.97;18.30;;;28.10;75.80;;;;;;4995133;28;20270;-61
2023/10/04 11:44:07;;;;;;;17.20;14.90;;;28.10;75.50;;;;;;4995954;28;20612;-63
2023/10/04 11:47:08;;;;;;;23.47;16.00;;;28.20;75.00;;;;;;4996180;28;20219;-64
2023/10/04 11:49:38;;;;;;;18.13;14.00;;;28.30;74.40;;;;;;4995284;28;20579;-63
2023/10/04 11:52:06;;;;;;;14.90;12.23;;;28.40;73.70;;;;;;4977558;28;20208;-63
2023/10/04 11:54:46;;;;;;;15.10;12.60;;;28.40;73.40;;;;;;4995829;28;20197;-63
2023/10/04 11:57:27;;;;;;;16.57;13.67;;;28.50;73.10;;;;;;4993866;28;20212;-63
2023/10/04 11:59:59;;;;;;;15.30;13.77;;;28.50;72.80;;;;;;4995120;28;20324;-64
2023/10/04 12:02:26;;;;;;;18.70;13.50;;;28.50;71.60;;;;;;4994308;28;20678;-64
2023/10/04 12:04:53;;;;;;;17.33;13.40;;;28.30;72.30;;;;;;4995267;28;20204;-63
2023/10/04 12:07:20;;;;;;;15.47;13.13;;;28.10;72.70;;;;;;4994121;28;20199;-62
2023/10/04 12:09:47;;;;;;;16.23;13.23;;;27.90;73.20;;;;;;4995343;28;20211;-63
2023/10/04 12:12:17;;;;;;;21.60;12.30;;;27.90;73.70;;;;;;4995327;28;20208;-64
2023/10/04 12:14:45;;;;;;;13.73;11.33;;;28.00;73.60;;;;;;4994587;28;20205;-63
2023/10/04 12:17:12;;;;;;;15.47;11.47;;;28.10;73.30;;;;;;4994700;28;20215;-63
2023/10/04 12:19:39;;;;;;;12.97;10.73;;;28.30;72.10;;;;;;4995103;28;20259;-65
2023/10/04 12:22:09;;;;;;;13.73;10.20;;;28.40;71.00;;;;;;4995044;28;20239;-64
2023/10/04 12:24:40;;;;;;;14.17;10.40;;;28.40;71.40;;;;;;4995405;28;20667;-64
2023/10/04 12:27:08;;;;;;;14.30;10.60;;;28.60;70.90;;;;;;4994872;28;20224;-64
2023/10/04 12:29:36;;;;;;;13.57;9.70;;;28.70;69.60;;;;;;4993717;28;20200;-64
2023/10/04 12:32:06;;;;;;;14.03;10.60;;;28.70;67.70;;;;;;4995129;28;20672;-64
2023/10/04 12:34:34;;;;;;;12.57;11.20;;;28.70;68.60;;;;;;4992826;28;20205;-63
2023/10/04 12:37:02;;;;;;;11.33;9.73;;;28.70;68.80;;;;;;4994979;28;20259;-63
2023/10/04 12:39:37;;;;;;;13.97;10.47;;;28.70;69.10;;;;;;4994221;28;20598;-63
2023/10/04 12:42:05;;;;;;;10.77;9.57;;;28.70;69.20;;;;;;4993424;28;20235;-64
2023/10/04 12:44:32;;;;;;;9.73;8.73;;;28.70;67.90;;;;;;4994560;28;20208;-63
2023/10/04 12:46:59;;;;;;;17.07;9.50;;;28.70;68.20;;;;;;4994814;28;20216;-63
2023/10/04 12:49:28;;;;;;;13.10;10.37;;;28.80;68.30;;;;;;4994778;28;20643;-63
2023/10/04 12:51:56;;;;;;;14.57;10.77;;;28.90;67.70;;;;;;4993774;28;20208;-64
2023/10/04 12:54:24;;;;;;;10.37;9.20;;;29.00;67.40;;;;;;4993986;28;20267;-63
2023/10/04 12:56:52;;;;;;;13.60;9.50;;;29.10;67.30;;;;;;4993387;28;20570;-64
2023/10/04 12:59:23;;;;;;;12.27;9.27;;;29.20;67.10;;;;;;4994045;28;20196;-64
2023/10/04 13:01:54;;;;;;;11.37;9.73;;;29.30;67.40;;;;;;4993070;28;20240;-63
2023/10/04 13:04:22;;;;;;;11.77;10.53;;;29.40;67.40;;;;;;4994360;28;20228;-64
2023/10/04 13:06:49;;;;;;;28.43;12.13;;;29.40;67.40;;;;;;4993819;28;20200;-63
2023/10/04 13:09:19;;;;;;;18.07;16.03;;;29.20;67.70;;;;;;4970600;28;20300;-61
2023/10/04 13:11:49;;;;;;;16.57;12.13;;;29.00;68.90;;;;;;4993633;28;20232;-65
2023/10/04 13:14:16;;;;;;;12.73;11.43;;;28.70;69.90;;;;;;4969921;28;20296;-62
2023/10/04 13:16:43;;;;;;;14.37;12.03;;;28.40;70.70;;;;;;4993472;28;20223;-62
2023/10/04 13:19:10;;;;;;;18.40;13.23;;;28.00;71.10;;;;;;4994600;28;20636;-65
2023/10/04 13:21:38;;;;;;;12.27;11.00;;;27.70;71.90;;;;;;4994506;28;20224;-62
2023/10/04 13:24:05;;;;;;;12.03;10.50;;;27.40;72.50;;;;;;4994329;28;20192;-62
2023/10/04 13:26:33;;;;;;;14.07;10.00;;;27.10;73.00;;;;;;4993254;28;20207;-62
2023/10/04 13:29:02;;;;;;;13.63;10.43;;;26.80;74.20;;;;;;4993152;28;20293;-63
2023/10/04 13:31:30;;;;;;;13.30;11.13;;;26.60;76.00;;;;;;4993549;28;20596;-63
2023/10/04 13:33:57;;;;;;;14.00;10.57;;;26.30;77.20;;;;;;4994097;28;20215;-63
2023/10/04 13:36:24;;;;;;;10.57;9.50;;;26.10;78.50;;;;;;4993569;28;20203;-65
2023/10/04 13:38:54;;;;;;;9.93;8.60;;;26.00;79.40;;;;;;4994149;28;20208;-62
2023/10/04 13:41:22;;;;;;;10.20;9.20;;;25.80;80.10;;;;;;4993434;28;20215;-63